Accueil
METAR-TAF:

METAR-TAF

Aéroports :

Aérodrome de La Gomera

La Gomera, Espagne

latitude: 28-01-47N, longitude: 017-12-53W, altitude: 218 m

Observation

Le bulletin a été fait il y a 36 minutes, à 00:30 UTC
Vent 3 kt de ouest
Température 16°C
Humidité 72%
Pression 1025 hPa
Visibilité 10 km ou plus
Quelques nuages à une hauteur de 1900 ft

METAR: GCGM 270030Z AUTO 28003KT 9999 FEW019 16/11 Q1025 RMK R09/VRB02KT ARP/VRB02KT

Heure: 01:06 (01:06 UTC)

Prévision

Le bulletin a été fait il y a 5 heures et 6 minutes, à 20:00 UTC
Prévision valable du 26 à 21 UTC au 27 à 21 UTC
Vent 5 kt de direction variable
Visibilité 10 km ou plus
Quelques nuages à une hauteur de 4000 ft

TAF: GCGM 262000Z 2621/2721 VRB05KT 9999 FEW040 TX20/2714Z TN14/2706Z

Observations et prévisions météorologiques de plus de 4000 aéroports (messages METAR et TAF).

Les stations disponibles sont représentées par des disques jaunes et rouges sur la carte.

Passer la souris dessus pour voir le nom de la station.

Cliquer dessus pour voir les observations et prévisions météorologiques.

Pour changer de carte: cliquez sur les boutons verts avec une croix noire pour zoomer, sur le bouton vert avec un tiret pour effectuer un zoom arrière, ou sur les flèches vertes pour les cartes adjacentes.


METAR-TAF: